createdAt,value
2019-05-23T00:02:45.180Z,12.73
2019-05-23T00:05:34.017Z,12.00
2019-05-23T00:08:09.552Z,11.20
2019-05-23T00:10:43.485Z,11.97
2019-05-23T00:13:31.415Z,11.50
2019-05-23T00:16:03.452Z,12.20
2019-05-23T00:18:35.875Z,12.60
2019-05-23T00:21:08.184Z,12.03
2019-05-23T00:23:41.033Z,11.87
2019-05-23T00:26:14.109Z,12.37
2019-05-23T00:28:44.951Z,13.50
2019-05-23T00:31:29.476Z,14.43
2019-05-23T00:34:00.385Z,14.03
2019-05-23T00:36:31.500Z,13.03
2019-05-23T00:39:03.505Z,12.40
2019-05-23T00:41:33.975Z,11.43
2019-05-23T00:44:04.934Z,12.77
2019-05-23T00:46:35.328Z,12.17
2019-05-23T00:49:07.898Z,12.70
2019-05-23T00:51:40.064Z,11.40
2019-05-23T00:54:11.909Z,11.47
2019-05-23T00:56:43.002Z,10.93
2019-05-23T00:59:25.929Z,9.53
2019-05-23T01:01:46.690Z,11.93
2019-05-23T01:04:18.192Z,12.40
2019-05-23T01:06:49.493Z,11.43
2019-05-23T01:09:19.961Z,13.60
2019-05-23T01:11:50.904Z,12.47
2019-05-23T01:14:21.574Z,10.40
2019-05-23T01:16:53.912Z,10.50
2019-05-23T01:19:25.299Z,10.80
2019-05-23T01:21:59.385Z,10.47
2019-05-23T01:24:35.424Z,9.63
2019-05-23T01:27:07.300Z,10.13
2019-05-23T01:29:42.205Z,10.63
2019-05-23T01:32:19.378Z,10.77
2019-05-23T01:34:51.240Z,10.70
2019-05-23T01:37:21.978Z,12.03
2019-05-23T01:39:53.032Z,10.60
2019-05-23T01:42:24.340Z,10.37
2019-05-23T01:44:57.803Z,10.73
2019-05-23T01:47:29.369Z,11.70
2019-05-23T01:50:01.337Z,12.60
2019-05-23T01:52:33.056Z,11.80
2019-05-23T01:55:03.497Z,12.37
2019-05-23T01:57:34.227Z,11.27
2019-05-23T02:00:10.576Z,11.13
2019-05-23T02:02:39.320Z,11.07
2019-05-23T02:05:11.666Z,12.37
2019-05-23T02:07:42.022Z,12.90
2019-05-23T02:10:14.007Z,12.07
2019-05-23T02:12:44.802Z,11.43
2019-05-23T02:15:15.679Z,10.70
2019-05-23T02:17:46.649Z,9.97
2019-05-23T02:20:20.517Z,9.53
2019-05-23T02:22:51.635Z,9.70
2019-05-23T02:25:24.892Z,10.67
2019-05-23T02:27:55.719Z,11.33
2019-05-23T02:30:36.006Z,10.97
2019-05-23T02:32:59.314Z,10.97
2019-05-23T02:35:29.898Z,10.10
2019-05-23T02:38:18.770Z,10.67
2019-05-23T02:41:07.231Z,11.30
2019-05-23T02:43:38.172Z,11.67
2019-05-23T02:46:16.588Z,10.90
2019-05-23T02:48:48.633Z,11.27
2019-05-23T02:51:29.379Z,10.40
2019-05-23T02:54:02.108Z,10.50
2019-05-23T02:56:36.780Z,10.37
2019-05-23T02:59:51.456Z,11.30
2019-05-23T03:02:54.706Z,12.13
2019-05-23T03:05:27.184Z,10.50
2019-05-23T03:08:00.638Z,10.60
2019-05-23T03:10:54.691Z,10.10
2019-05-23T03:13:28.366Z,11.13
2019-05-23T03:16:00.586Z,10.70
2019-05-23T03:18:35.116Z,10.03
2019-05-23T03:21:06.322Z,11.03
2019-05-23T03:23:37.197Z,10.60
2019-05-23T03:27:00.922Z,10.73
2019-05-23T03:29:33.477Z,10.97
2019-05-23T03:32:19.903Z,11.03
2019-05-23T03:34:53.712Z,10.67
2019-05-23T03:37:24.060Z,11.33
2019-05-23T03:39:55.341Z,11.40
2019-05-23T03:42:27.747Z,10.93
2019-05-23T03:45:00.131Z,11.27
2019-05-23T03:47:32.259Z,11.30
2019-05-23T03:50:03.097Z,11.67
2019-05-23T03:52:33.649Z,10.63
2019-05-23T03:55:05.686Z,11.40
2019-05-23T03:57:36.942Z,11.83
2019-05-23T04:00:11.676Z,11.17
2019-05-23T04:02:42.562Z,11.73
2019-05-23T04:05:13.024Z,11.13
2019-05-23T04:07:44.564Z,11.43
2019-05-23T04:10:15.451Z,11.27
2019-05-23T04:12:45.903Z,10.57
2019-05-23T04:15:16.701Z,12.07
2019-05-23T04:17:47.523Z,11.60
2019-05-23T04:20:17.822Z,11.93
2019-05-23T04:22:48.344Z,13.53
2019-05-23T04:25:19.079Z,11.60
2019-05-23T04:27:49.870Z,14.33
2019-05-23T04:30:20.750Z,13.40
2019-05-23T04:32:51.606Z,13.83
2019-05-23T04:35:21.953Z,13.67
2019-05-23T04:37:52.648Z,14.23
2019-05-23T04:40:23.822Z,14.17
2019-05-23T04:42:54.367Z,15.87
2019-05-23T04:45:25.846Z,16.10
2019-05-23T04:47:56.576Z,17.03
2019-05-23T04:50:28.025Z,18.37
2019-05-23T04:53:01.925Z,15.13
2019-05-23T04:55:32.653Z,16.03
2019-05-23T04:58:05.031Z,15.93
2019-05-23T05:00:35.938Z,15.30
2019-05-23T05:03:08.608Z,16.27
2019-05-23T05:05:38.986Z,16.57
2019-05-23T05:08:09.635Z,16.57
2019-05-23T05:10:42.069Z,15.33
2019-05-23T05:13:12.492Z,15.17
2019-05-23T05:15:43.378Z,15.43
2019-05-23T05:18:14.449Z,16.23
2019-05-23T05:20:44.936Z,16.20
2019-05-23T05:23:15.422Z,15.63
2019-05-23T05:25:45.919Z,15.57
2019-05-23T05:28:16.312Z,15.93
2019-05-23T05:30:47.065Z,15.00
2019-05-23T05:33:17.703Z,15.17
2019-05-23T05:35:48.227Z,13.67
2019-05-23T05:38:19.692Z,14.73
2019-05-23T05:40:50.621Z,15.40
2019-05-23T05:43:21.566Z,15.73
2019-05-23T05:45:52.642Z,15.80
2019-05-23T05:48:23.024Z,17.07
2019-05-23T05:50:53.897Z,16.13
2019-05-23T05:53:24.672Z,16.73
2019-05-23T05:55:55.146Z,16.53
2019-05-23T05:58:25.658Z,16.10
2019-05-23T06:01:04.461Z,16.50
2019-05-23T06:03:35.149Z,15.87
2019-05-23T06:06:29.166Z,14.73
2019-05-23T06:09:01.629Z,21.00
2019-05-23T06:11:32.264Z,19.70
2019-05-23T06:14:02.807Z,14.53
2019-05-23T06:16:34.745Z,14.73
2019-05-23T06:19:06.363Z,14.43
2019-05-23T06:21:36.938Z,14.07
2019-05-23T06:24:07.890Z,12.80
2019-05-23T06:26:40.140Z,13.10
2019-05-23T06:29:10.592Z,13.03
2019-05-23T06:31:42.942Z,8.27
2019-05-23T06:34:14.254Z,9.60
2019-05-23T06:36:44.784Z,10.57
2019-05-23T06:39:15.768Z,8.90
2019-05-23T06:41:46.489Z,8.87
2019-05-23T06:44:18.486Z,7.83
2019-05-23T06:46:49.456Z,7.27
2019-05-23T06:49:19.777Z,7.27
2019-05-23T06:51:50.109Z,7.13
2019-05-23T06:54:20.525Z,5.77
2019-05-23T06:56:50.884Z,6.50
2019-05-23T06:59:21.532Z,7.00
2019-05-23T07:01:51.992Z,6.80
2019-05-23T07:04:22.350Z,6.80
2019-05-23T07:06:53.225Z,6.60
2019-05-23T07:09:24.634Z,6.50
2019-05-23T07:11:59.139Z,6.30
2019-05-23T07:14:32.057Z,6.10
2019-05-23T07:17:02.482Z,5.73
2019-05-23T07:19:33.047Z,6.17
2019-05-23T07:22:03.922Z,6.20
2019-05-23T07:24:34.374Z,6.50
2019-05-23T07:27:04.850Z,5.97
2019-05-23T07:29:36.029Z,5.20
2019-05-23T07:32:07.537Z,5.10
2019-05-23T07:34:37.973Z,4.97
2019-05-23T07:37:09.440Z,5.43
2019-05-23T07:39:40.012Z,6.33
2019-05-23T07:42:11.678Z,6.07
2019-05-23T07:44:48.413Z,6.23
2019-05-23T07:47:16.108Z,6.50
2019-05-23T07:49:47.993Z,5.80
2019-05-23T07:52:21.444Z,5.30
2019-05-23T07:54:57.876Z,5.70
2019-05-23T07:57:28.494Z,6.43
2019-05-23T07:59:58.932Z,5.97
2019-05-23T08:02:34.230Z,5.33
2019-05-23T08:05:06.569Z,6.50
2019-05-23T08:07:37.542Z,6.33
2019-05-23T08:10:09.777Z,6.20
2019-05-23T08:12:40.686Z,6.40
2019-05-23T08:15:11.998Z,6.30
2019-05-23T08:17:47.288Z,6.53
2019-05-23T08:20:17.980Z,6.27
2019-05-23T08:22:48.395Z,6.20
2019-05-23T08:25:18.763Z,6.40
2019-05-23T08:27:49.263Z,5.80
2019-05-23T08:30:20.242Z,5.50
2019-05-23T08:32:51.237Z,6.30
2019-05-23T08:35:21.969Z,6.10
2019-05-23T08:37:52.616Z,4.97
2019-05-23T08:40:23.957Z,5.00
2019-05-23T08:42:54.408Z,5.00
2019-05-23T08:45:24.874Z,4.63
2019-05-23T08:47:55.408Z,4.10
2019-05-23T08:50:26.013Z,4.23
2019-05-23T08:52:56.485Z,4.20
2019-05-23T08:55:27.930Z,3.93
2019-05-23T08:57:59.105Z,3.97
2019-05-23T09:00:29.917Z,4.93
2019-05-23T09:03:02.083Z,3.70
2019-05-23T09:05:33.071Z,4.57
2019-05-23T09:08:03.903Z,3.53
2019-05-23T09:10:34.719Z,3.70
2019-05-23T09:13:05.852Z,3.90
2019-05-23T09:15:36.251Z,3.97
2019-05-23T09:18:08.168Z,4.17
2019-05-23T09:20:38.830Z,3.23
2019-05-23T09:23:09.168Z,4.20
2019-05-23T09:25:39.671Z,3.40
2019-05-23T09:28:11.774Z,4.30
2019-05-23T09:30:42.264Z,3.77
2019-05-23T09:33:12.929Z,4.17
2019-05-23T09:35:43.730Z,3.87
2019-05-23T09:38:14.114Z,3.87
2019-05-23T09:40:44.858Z,3.67
2019-05-23T09:43:15.581Z,3.27
2019-05-23T09:45:46.005Z,3.60
2019-05-23T09:48:16.446Z,3.10
2019-05-23T09:50:49.050Z,3.90
2019-05-23T09:53:19.727Z,3.43
2019-05-23T09:55:50.037Z,3.40
2019-05-23T09:58:20.539Z,3.43
2019-05-23T10:00:51.670Z,3.20
2019-05-23T10:03:22.149Z,3.50
2019-05-23T10:05:52.644Z,3.17
2019-05-23T10:08:23.127Z,2.80
2019-05-23T10:10:53.868Z,3.37
2019-05-23T10:13:38.681Z,3.33
2019-05-23T10:16:08.077Z,3.20
2019-05-23T10:18:38.675Z,3.50
2019-05-23T10:21:09.185Z,3.60
2019-05-23T10:23:39.602Z,4.30
2019-05-23T10:26:11.362Z,4.83
2019-05-23T10:28:42.160Z,3.23
2019-05-23T10:31:13.378Z,3.87
2019-05-23T10:33:44.284Z,3.57
2019-05-23T10:36:15.112Z,3.60
2019-05-23T10:38:45.557Z,3.50
2019-05-23T10:41:15.936Z,3.20
2019-05-23T10:43:46.873Z,3.17
2019-05-23T10:46:17.640Z,2.77
2019-05-23T10:48:48.227Z,3.13
2019-05-23T10:51:19.215Z,2.63
2019-05-23T10:53:49.792Z,3.37
2019-05-23T10:56:21.094Z,2.90
2019-05-23T10:58:52.294Z,3.10
2019-05-23T11:01:23.011Z,2.60
2019-05-23T11:03:54.055Z,3.40
2019-05-23T11:06:25.798Z,2.80
2019-05-23T11:08:56.598Z,2.10
2019-05-23T11:11:27.209Z,2.83
2019-05-23T11:13:58.507Z,3.17
2019-05-23T11:16:29.156Z,3.07
2019-05-23T11:18:59.589Z,3.00
2019-05-23T11:21:30.316Z,2.93
2019-05-23T11:24:01.392Z,2.50
2019-05-23T11:26:32.082Z,2.60
2019-05-23T11:29:02.664Z,2.30
2019-05-23T11:31:33.203Z,2.72
2019-05-23T11:34:04.001Z,2.60
2019-05-23T11:36:36.648Z,2.98
2019-05-23T11:39:09.442Z,3.10
2019-05-23T11:41:39.903Z,2.90
2019-05-23T11:44:10.358Z,2.10
2019-05-23T11:46:41.007Z,2.57
2019-05-23T11:49:11.439Z,2.53
2019-05-23T11:51:42.295Z,3.70
2019-05-23T11:54:12.716Z,2.93
2019-05-23T11:56:43.232Z,2.23
2019-05-23T11:59:13.901Z,2.50
2019-05-23T12:02:06.228Z,2.70
2019-05-23T12:04:41.919Z,3.30
2019-05-23T12:07:19.330Z,2.80
2019-05-23T12:09:49.793Z,3.20
2019-05-23T12:12:20.540Z,2.90
2019-05-23T12:14:50.978Z,2.40
2019-05-23T12:17:22.870Z,2.73
2019-05-23T12:19:53.300Z,2.23
2019-05-23T12:22:24.271Z,2.60
2019-05-23T12:24:54.876Z,2.50
2019-05-23T12:27:25.990Z,2.13
2019-05-23T12:29:56.878Z,2.43
2019-05-23T12:32:27.507Z,2.40
2019-05-23T12:35:10.574Z,1.93
2019-05-23T12:37:30.136Z,2.50
2019-05-23T12:40:01.239Z,2.63
2019-05-23T12:42:31.676Z,1.97
2019-05-23T12:45:02.925Z,2.17
2019-05-23T12:47:58.169Z,2.03
2019-05-23T12:50:32.749Z,2.20
2019-05-23T12:53:04.512Z,2.07
2019-05-23T12:55:34.980Z,2.10
2019-05-23T12:58:05.383Z,1.70
2019-05-23T13:00:57.865Z,2.50
2019-05-23T13:03:29.963Z,2.10
2019-05-23T13:06:02.629Z,2.35
2019-05-23T13:08:34.980Z,1.90
2019-05-23T13:11:06.824Z,1.87
2019-05-23T13:13:37.873Z,2.20
2019-05-23T13:16:09.215Z,2.12
2019-05-23T13:18:40.372Z,2.10
2019-05-23T13:21:11.692Z,1.80
2019-05-23T13:23:43.064Z,2.30
2019-05-23T13:26:14.155Z,2.22
2019-05-23T13:28:45.431Z,1.80
2019-05-23T13:31:16.458Z,1.75
2019-05-23T13:33:48.051Z,1.80
2019-05-23T13:36:19.424Z,2.17
2019-05-23T13:38:51.338Z,2.00
2019-05-23T13:41:21.877Z,1.70
2019-05-23T13:43:52.694Z,2.02
2019-05-23T13:46:23.409Z,2.50
2019-05-23T13:48:53.843Z,2.30
2019-05-23T13:51:24.393Z,2.10
2019-05-23T13:53:54.825Z,2.40
2019-05-23T13:56:25.328Z,1.93
2019-05-23T13:58:55.968Z,1.90
2019-05-23T14:01:26.512Z,2.53
2019-05-23T14:03:57.414Z,1.80
2019-05-23T14:06:27.800Z,2.23
2019-05-23T14:08:58.236Z,2.13
2019-05-23T14:11:28.710Z,2.03
2019-05-23T14:14:01.782Z,1.90
2019-05-23T14:16:33.790Z,2.10
2019-05-23T14:19:04.242Z,1.70
2019-05-23T14:24:04.604Z,2.10
2019-05-23T14:26:41.348Z,2.00
2019-05-23T14:29:11.753Z,2.20
2019-05-23T14:31:50.118Z,2.10
2019-05-23T14:34:21.146Z,2.00
2019-05-23T14:37:14.598Z,1.50
2019-05-23T14:40:00.538Z,1.80
2019-05-23T14:42:39.448Z,2.30
2019-05-23T14:45:36.393Z,2.17
2019-05-23T14:48:13.378Z,2.00
2019-05-23T14:50:58.992Z,1.90
2019-05-23T14:53:31.027Z,1.70
2019-05-23T14:56:01.441Z,2.00
2019-05-23T14:58:32.127Z,1.93
2019-05-23T15:01:04.613Z,1.90
2019-05-23T15:03:36.049Z,1.90
2019-05-23T15:06:06.746Z,1.80
2019-05-23T15:08:50.579Z,2.37
2019-05-23T15:11:09.329Z,2.03
2019-05-23T15:13:39.744Z,2.80
2019-05-23T15:16:11.572Z,2.00
2019-05-23T15:18:42.100Z,1.73
2019-05-23T15:21:12.710Z,2.33
2019-05-23T15:23:43.118Z,2.00
2019-05-23T15:26:23.173Z,1.40
2019-05-23T15:28:45.795Z,1.60
2019-05-23T15:31:35.226Z,1.60
2019-05-23T15:34:05.690Z,1.70
2019-05-23T15:36:36.119Z,1.93
2019-05-23T15:39:10.561Z,1.97
2019-05-23T15:41:41.438Z,1.90
2019-05-23T15:44:25.925Z,1.43
2019-05-23T15:46:44.318Z,1.73
2019-05-23T15:49:15.523Z,3.70
2019-05-23T15:51:53.988Z,2.90
2019-05-23T15:54:32.695Z,1.87
2019-05-23T15:57:27.988Z,1.30
2019-05-23T16:00:18.229Z,1.30
2019-05-23T16:02:57.122Z,1.30
2019-05-23T16:05:27.587Z,1.52
2019-05-23T16:07:58.121Z,2.90
2019-05-23T16:10:29.637Z,2.30
2019-05-23T16:13:00.423Z,2.07
2019-05-23T16:15:30.909Z,2.03
2019-05-23T16:18:01.334Z,1.97
2019-05-23T16:20:31.851Z,1.80
2019-05-23T16:23:02.302Z,1.73
2019-05-23T16:25:32.700Z,2.20
2019-05-23T16:28:03.128Z,2.37
2019-05-23T16:30:33.565Z,2.10
2019-05-23T16:33:04.012Z,2.90
2019-05-23T16:35:34.855Z,2.20
2019-05-23T16:38:05.376Z,2.00
2019-05-23T16:40:36.220Z,2.03
2019-05-23T16:43:06.652Z,1.90
2019-05-23T16:45:37.101Z,2.40
2019-05-23T16:48:07.829Z,2.40
2019-05-23T16:50:38.481Z,18.82
2019-05-23T16:53:08.885Z,2.80
2019-05-23T16:55:55.288Z,2.10
2019-05-23T16:58:41.570Z,1.90
2019-05-23T17:01:24.245Z,4.00
2019-05-23T17:04:06.378Z,2.20
2019-05-23T17:07:01.796Z,7.53
2019-05-23T17:09:38.865Z,2.27
2019-05-23T17:12:21.905Z,3.27
2019-05-23T17:15:08.120Z,2.40
2019-05-23T17:18:02.735Z,1.90
2019-05-23T17:20:48.378Z,2.30
2019-05-23T17:23:32.728Z,2.57
2019-05-23T17:26:18.122Z,2.57
2019-05-23T17:28:51.112Z,2.73
2019-05-23T17:31:26.966Z,3.10
2019-05-23T17:33:57.498Z,2.30
2019-05-23T17:36:28.081Z,2.43
2019-05-23T17:38:58.435Z,2.30
2019-05-23T17:41:28.881Z,3.43
2019-05-23T17:43:59.386Z,3.20
2019-05-23T17:46:29.736Z,3.93
2019-05-23T17:49:00.273Z,2.27
2019-05-23T17:51:30.740Z,2.40
2019-05-23T17:54:01.220Z,3.10
2019-05-23T17:56:31.608Z,3.50
2019-05-23T17:59:02.232Z,5.90
2019-05-23T18:01:33.290Z,3.40
2019-05-23T18:04:04.279Z,2.33
2019-05-23T18:06:35.484Z,6.33
2019-05-23T18:09:08.539Z,5.60
2019-05-23T18:11:39.286Z,5.27
2019-05-23T18:14:10.848Z,3.33
2019-05-23T18:16:42.928Z,2.30
2019-05-23T18:19:13.893Z,2.10
2019-05-23T18:21:45.010Z,2.20
2019-05-23T18:24:17.217Z,2.23
2019-05-23T18:26:47.724Z,2.60
2019-05-23T18:29:18.501Z,2.60
2019-05-23T18:31:50.712Z,2.33
2019-05-23T18:34:22.520Z,2.50
2019-05-23T18:36:53.852Z,2.00
2019-05-23T18:39:24.577Z,2.30
2019-05-23T18:41:55.721Z,2.00
2019-05-23T18:44:26.501Z,2.53
2019-05-23T18:46:59.387Z,2.40
2019-05-23T18:49:29.935Z,2.40
2019-05-23T18:52:00.903Z,2.50
2019-05-23T18:54:31.363Z,2.67
2019-05-23T18:57:02.123Z,2.70
2019-05-23T18:59:32.710Z,2.50
2019-05-23T19:02:04.280Z,2.57
2019-05-23T19:04:34.706Z,2.77
2019-05-23T19:07:07.489Z,32.53
2019-05-23T19:09:38.591Z,70.47
2019-05-23T19:12:09.922Z,76.70
2019-05-23T19:14:40.223Z,4.23
2019-05-23T19:17:10.859Z,3.07
2019-05-23T19:19:41.312Z,3.13
2019-05-23T19:22:11.652Z,2.83
2019-05-23T19:24:42.140Z,3.03
2019-05-23T19:27:14.456Z,4.13
2019-05-23T19:29:46.004Z,3.77
2019-05-23T19:32:16.642Z,3.30
2019-05-23T19:34:47.492Z,3.20
2019-05-23T19:37:18.308Z,2.90
2019-05-23T19:39:48.786Z,2.77
2019-05-23T19:42:19.763Z,2.70
2019-05-23T19:44:50.262Z,3.33
2019-05-23T19:47:20.691Z,3.60
2019-05-23T19:49:51.278Z,4.43
2019-05-23T19:52:22.005Z,5.40
2019-05-23T19:54:52.721Z,8.63
2019-05-23T19:57:23.276Z,11.63
2019-05-23T19:59:54.022Z,10.83
2019-05-23T20:02:46.113Z,7.83
2019-05-23T20:05:21.880Z,5.90
2019-05-23T20:07:52.391Z,3.77
2019-05-23T20:10:23.929Z,3.50
2019-05-23T20:12:54.347Z,3.30
2019-05-23T20:15:24.961Z,3.33
2019-05-23T20:17:55.660Z,6.30
2019-05-23T20:20:26.758Z,6.20
2019-05-23T20:22:57.773Z,5.10
2019-05-23T20:25:28.801Z,3.73
2019-05-23T20:27:59.223Z,6.20
2019-05-23T20:30:57.072Z,4.73
2019-05-23T20:33:27.487Z,4.03
2019-05-23T20:35:58.476Z,3.67
2019-05-23T20:38:29.007Z,4.00
2019-05-23T20:40:59.482Z,3.40
2019-05-23T20:43:30.043Z,3.47
2019-05-23T20:46:00.498Z,3.40
2019-05-23T20:48:30.988Z,3.90
2019-05-23T20:51:01.431Z,3.60
2019-05-23T20:53:32.525Z,3.60
2019-05-23T20:56:02.896Z,3.33
2019-05-23T20:58:33.409Z,3.90
2019-05-23T21:01:11.543Z,3.63
2019-05-23T21:03:42.320Z,3.40
2019-05-23T21:06:12.753Z,3.77
2019-05-23T21:08:43.553Z,3.70
2019-05-23T21:11:13.957Z,3.70
2019-05-23T21:13:44.450Z,3.40
2019-05-23T21:16:14.881Z,3.50
2019-05-23T21:18:49.025Z,3.77
2019-05-23T21:21:17.457Z,3.90
2019-05-23T21:23:48.053Z,3.93
2019-05-23T21:26:18.551Z,4.17
2019-05-23T21:28:49.068Z,3.90
2019-05-23T21:31:22.675Z,3.87
2019-05-23T21:33:53.135Z,3.90
2019-05-23T21:36:23.647Z,4.30
2019-05-23T21:38:54.155Z,4.23
2019-05-23T21:41:24.642Z,4.20
2019-05-23T21:43:57.012Z,3.93
2019-05-23T21:46:27.573Z,4.40
2019-05-23T21:48:57.907Z,3.73
2019-05-23T21:51:28.337Z,3.60
2019-05-23T21:53:58.825Z,4.30
2019-05-23T21:56:29.851Z,4.07
2019-05-23T21:59:00.486Z,4.00
2019-05-23T22:01:53.505Z,3.83
2019-05-23T22:04:46.001Z,3.70
2019-05-23T22:07:16.695Z,4.07
2019-05-23T22:09:47.062Z,4.30
2019-05-23T22:12:17.686Z,4.00
2019-05-23T22:14:48.680Z,4.00
2019-05-23T22:17:20.740Z,3.93
2019-05-23T22:19:51.190Z,4.90
2019-05-23T22:22:22.365Z,3.73
2019-05-23T22:24:53.272Z,4.07
2019-05-23T22:27:23.725Z,4.30
2019-05-23T22:29:54.474Z,4.43
2019-05-23T22:32:26.809Z,3.43
2019-05-23T22:35:01.737Z,3.60
2019-05-23T22:37:32.449Z,3.47
2019-05-23T22:40:04.012Z,3.73
2019-05-23T22:42:34.740Z,3.90
2019-05-23T22:45:07.785Z,4.13
2019-05-23T22:47:38.320Z,3.47
2019-05-23T22:50:09.130Z,3.90
2019-05-23T22:52:39.562Z,3.87
2019-05-23T22:55:09.944Z,3.83
2019-05-23T22:57:40.726Z,4.00
2019-05-23T23:00:14.127Z,3.87
2019-05-23T23:02:46.093Z,4.10
2019-05-23T23:05:16.730Z,3.33
2019-05-23T23:07:47.415Z,3.70
2019-05-23T23:10:17.919Z,4.17
2019-05-23T23:12:48.464Z,3.63
2019-05-23T23:15:18.986Z,3.90
2019-05-23T23:17:49.435Z,4.27
2019-05-23T23:20:19.839Z,3.73
2019-05-23T23:22:50.165Z,3.97
2019-05-23T23:25:20.766Z,4.23
2019-05-23T23:27:51.212Z,4.33
2019-05-23T23:30:25.009Z,4.10
2019-05-23T23:32:55.361Z,3.83
2019-05-23T23:35:25.773Z,4.10
2019-05-23T23:37:56.246Z,3.70
2019-05-23T23:40:26.640Z,3.63
2019-05-23T23:42:57.860Z,3.83
2019-05-23T23:45:46.592Z,3.90
2019-05-23T23:48:34.758Z,3.87
2019-05-23T23:51:23.029Z,4.30
2019-05-23T23:54:10.875Z,4.00
2019-05-23T23:56:59.064Z,3.70
2019-05-23T23:59:28.504Z,4.40
